Aérodrome :
LOGIN :

S'inscrire | Disclaimer

   EN    FR    IT 

 










Légende :    VFR   VFR Marginal   IFR   IFR Intensif   IFR Très Intensif
Visi : 
Plafond : 
>= 8 km
>= 3000ft
5 à 8 km
1000 à 3000 ft
1500m à 5 km
500 à 1000 ft
800 à 1500m
200 à 500 ft
< 800m
< 200 ft
Symboles :   Orages  Brouillard  Fortes neiges  Fortes précipitations  Vent > 20 kt
SIGMETs :   Divers  Orages  Givrage  Turbulence  Onde Orograph.  Cendres Volcan.






- Altitude de l'aérodrome : 526 ft
- Code IATA : LTN


EGGW - London Luton

DERNIER METAR :
  • 291950Z AUTO 26016KT 9999 FEW039 06/04 Q1021

METARs EXPIRÉS :
  • 291920Z AUTO 26015KT 9999 NCD 06/05 Q1022
  • 291850Z AUTO 25014KT 9999 NCD 06/05 Q1022
  • 291820Z AUTO 23011KT 9999 BKN011 07/05 Q1021
  • 291750Z AUTO 24010KT 9999 BKN012 07/06 Q1021
  • 291720Z AUTO 23011KT 9999 BKN014 BKN028 07/06 Q1021

TAF AMD TAF EGGW
Valide du 29 à 18h jusqu'au 30 à 18h UTC


291811Z 2918/3018 25013KT 9999 SCT025
TEMPO 2918/3004 BKN012
PROB40
TEMPO 3000/3004 7000 -RA BKN007
BECMG 3004/3006 31013KT
ATIS : +44 1582 395 204



MET'MAP, la Météo Aéronautique d'un coup d'oeil ! - Copyright ORBIFLY Décembre 2007 - Disclaimer

ORBIFLY MET'MAP TEAM :

Programmation & Développement : Alexandra Zaïnal
Sur une idée originale de : Baudouin d'Aumeries
Soutien technique & logistique : Manuel Goepfert
Assistance : Marc-Olivier Méhu




SOURCES & CREDITS :

   NOAA